This is the latest recevied weather packets stored in our database for station/object VE2JJ-13. If no packets are shown the sender has not sent any weather packets the latest 10 day(s).
| Time | Temp. | Humidity | Pressure | Rain* | Wind** | Luminosity | Snow |
|---|---|---|---|---|---|---|---|
| 1777746677 | 10° C | 73% | 1004.2 hPa | 0 mm | - | - | - |
| 1777746348 | 9.44° C | 68% | 1004 hPa | 0 mm | - | - | - |
| 1777746019 | 9.44° C | 69% | 1004 hPa | 0 mm | - | - | - |
| 1777745689 | 9.44° C | 69% | 1004 hPa | 0 mm | - | - | - |
| 1777745358 | 10° C | 67% | 1004 hPa | 0 mm | - | - | - |
| 1777745058 | 10° C | 68% | 1004.2 hPa | 0 mm | - | - | - |
| 1777744426 | 9.44° C | 69% | 1004.2 hPa | 0 mm | - | - | - |
| 1777744127 | 9.44° C | 68% | 1004.2 hPa | 0 mm | - | - | - |
| 1777743827 | 10° C | 69% | 1004.2 hPa | 0 mm | - | - | - |
| 1777743530 | 10° C | 69% | 1004.2 hPa | 0 mm | - | - | - |
| 1777743226 | 10° C | 68% | 1004.2 hPa | 0 mm | - | - | - |
| 1777742897 | 9.44° C | 70% | 1004.3 hPa | 0 mm | - | - | - |
| 1777742666 | 9.44° C | 70% | 1004.3 hPa | 0 mm | - | - | - |
| 1777742598 | 9.44° C | 70% | 1004.3 hPa | 0 mm | - | - | - |
| 1777741970 | 8.89° C | 71% | 1004.5 hPa | 0 mm | - | - | - |
| 1777741640 | 8.89° C | 73% | 1004.5 hPa | 0 mm | - | - | - |
| 1777741307 | 8.89° C | 70% | 1004.6 hPa | 0 mm | - | - | - |
| 1777741007 | 9.44° C | 69% | 1004.6 hPa | 0 mm | - | - | - |
| 1777740711 | 9.44° C | 71% | 1004.7 hPa | 0 mm | - | - | - |
| 1777740379 | 10° C | 71% | 1004.7 hPa | 0 mm | - | - | - |
| 1777740080 | 10° C | 69% | 1004.7 hPa | 0 mm | - | - | - |
| 1777739778 | 10° C | 73% | 1004.7 hPa | 0 mm | - | - | - |
| 1777739448 | 9.44° C | 71% | 1004.7 hPa | 0 mm | - | - | - |
| 1777739153 | 8.89° C | 74% | 1004.9 hPa | 0 mm | - | - | - |
| 1777738849 | 8.89° C | 74% | 1004.9 hPa | 0 mm | - | - | - |
* Rain latest hour (hover to see other rain measurements)
** Current wind speed in m/s (hover to see current wind gust speed)